Catàleg de serveis del Meteocat
Campanya meteocatpedra

Dades de l'estació automàtica Ulldecona - els Valentins

?
?
Resum diari 23:00 TU
Dades diàries de l'estació meteorològica
Temperatura mitjana 26.7 °C
Temperatura màxima 33.1 °C 12:31 TU
Temperatura mínima 21.1 °C 23:29 TU
Humitat relativa mitjana 42%
Precipitació acumulada 0.0 mm
Ratxa màxima del vent (2 m) 29.9 km/h - 305º 8:09 TU
Irradiació solar global 29.8 MJ/m2

El tram horari està expressat en Temps Universal (TU). Cal sumar una hora en horari d'hivern i dues en horari d'estiu per passar a l'hora oficial.

Ulldecona - els Valentins

Metadades estació meteorol´gica
Municipi Ulldecona
Comarca Montsià
Altitud 210 m
Data alta 15.11.1990
Estat actual Operativa
Dades de període
Període
TU
TM
°C
TX
°C
TN
°C
HRM
%
PPT
mm
VVM (2 m)
km/h
DVM (2 m)
graus
VVX (2 m)
km/h
RS
W/m2
00:00 - 00:30 22.5 23.1 22.0 46 0.0 2.2 244 5.0 0
00:30 - 01:00 23.0 24.1 22.4 41 0.0 3.6 230 12.6 0
01:00 - 01:30 23.2 23.8 22.7 36 0.0 4.0 249 11.2 0
01:30 - 02:00 22.7 23.4 22.3 36 0.0 3.6 255 8.6 0
02:00 - 02:30 22.9 23.2 22.4 35 0.0 4.0 266 11.5 0
02:30 - 03:00 22.8 23.3 22.3 37 0.0 4.7 249 16.6 0
03:00 - 03:30 22.5 22.7 22.4 39 0.0 5.0 229 11.9 0
03:30 - 04:00 22.0 22.7 21.7 42 0.0 3.6 235 8.6 0
04:00 - 04:30 22.2 22.5 21.9 41 0.0 5.0 251 14.8 0
04:30 - 05:00 22.4 22.7 21.8 41 0.0 5.4 237 16.2 7
05:00 - 05:30 22.1 22.3 21.8 43 0.0 2.9 229 10.1 22
05:30 - 06:00 23.0 23.6 22.3 41 0.0 4.7 285 14.8 41
06:00 - 06:30 24.4 24.9 23.7 38 0.0 6.8 299 19.4 223
06:30 - 07:00 25.1 25.2 24.9 37 0.0 9.4 300 24.5 334
07:00 - 07:30 25.9 26.4 25.2 35 0.0 8.6 309 28.8 431
07:30 - 08:00 26.7 27.3 26.3 33 0.0 9.4 302 23.0 525
08:00 - 08:30 27.1 27.7 26.8 33 0.0 11.9 302 29.9 615
08:30 - 09:00 28.5 29.3 27.6 30 0.0 7.9 299 20.5 696
09:00 - 09:30 28.9 29.2 28.6 30 0.0 5.4 307 15.8 765
09:30 - 10:00 30.0 30.5 29.2 30 0.0 4.3 22 15.5 826
10:00 - 10:30 30.2 30.8 29.6 30 0.0 4.3 22 15.5 875
10:30 - 11:00 30.9 31.7 30.2 30 0.0 4.0 39 15.1 915
11:00 - 11:30 31.6 32.6 31.0 29 0.0 3.2 145 10.1 944
11:30 - 12:00 32.0 32.9 31.4 29 0.0 4.3 76 14.4 955
12:00 - 12:30 32.3 33.0 31.6 29 0.0 4.3 259 13.0 894
12:30 - 13:00 32.5 33.1 31.7 31 0.0 7.6 158 24.8 944
13:00 - 13:30 32.1 32.8 31.5 31 0.0 9.7 143 24.1 919
13:30 - 14:00 32.4 32.8 32.1 30 0.0 10.1 141 25.2 884
14:00 - 14:30 32.2 33.0 31.6 29 0.0 12.6 135 24.1 835
14:30 - 15:00 31.8 32.8 31.4 33 0.0 10.4 137 25.6 777
15:00 - 15:30 31.8 32.4 31.4 34 0.0 7.6 143 18.7 706
15:30 - 16:00 31.5 32.0 31.1 34 0.0 10.4 136 21.2 623
16:00 - 16:30 31.1 31.4 30.8 35 0.0 10.4 137 20.9 539
16:30 - 17:00 31.0 31.6 30.7 35 0.0 9.4 138 20.9 447
17:00 - 17:30 30.0 30.4 29.5 38 0.0 8.6 141 20.2 354
17:30 - 18:00 29.2 30.1 28.7 41 0.0 6.8 141 15.5 257
18:00 - 18:30 28.4 28.9 27.9 42 0.0 5.4 143 16.6 157
18:30 - 19:00 27.4 27.9 27.0 44 0.0 3.6 150 10.1 38
19:00 - 19:30 26.4 27.0 25.5 47 0.0 1.4 144 5.8 11
19:30 - 20:00 24.8 25.4 24.1 57 0.0 0.7 100 5.0 1
20:00 - 20:30 23.3 23.9 22.6 64 0.0 0.0 134 2.9 0
20:30 - 21:00 23.0 23.7 22.6 66 0.0 2.5 5 12.6 0
21:00 - 21:30 23.4 23.6 23.1 73 0.0 5.4 16 15.1 0
21:30 - 22:00 22.8 23.1 22.6 80 0.0 6.1 6 16.6 0
22:00 - 22:30 22.4 22.6 22.2 84 0.0 3.2 18 11.2 0
22:30 - 23:00 22.0 22.3 21.8 84 0.0 1.4 17 5.8 0
23:00 - 23:30 21.6 21.8 21.1 85 0.0 1.1 351 4.3 0

Les dades en taronja només han passat un control de qualitat automàtic. Resta pendent la seva validació definitiva.